Кучаны

Карта отелей и гостиниц, располагающихся рядом с аэропортом Кучаны :

Кучаны Кировская область 58° 27' 17.7192" N, 49° 21' 8.0784" E
Код аэродрома ИКАО
ZBO3
Код аэродрома RU
ЗБО3
Координаты
N58.45492° E049.35224°
Превышение над уровнем моря
152
Основная полоса
10/28
Курс магнитный
094,9/274,9
Длина основной ВПП
607
Ширина основной ВПП
60
Покрытие основной ВПП
Нетвёрдое (грунт)
Освещение ВПП
Нет
Тип: 
Аэродром
Класс аэродрома: 
Принадлежность: 
АОН
Статус: 
Действующий
Сайт: 
http://xn--80aaafc0bk7d5f.xn--p1ai/pp-kuchany-2/
E-mail аэродрома: 
Страна: 
Россия
Регион: 
Кировская область
Город: 
Дополнительная информация: 
Владелец ПП: АК "ООО Вяткаавиа" (г. Киров, ул. Труда, дом 40). Собственной радиочастоты не имеет. Обустроена на двух ГВПП. Основная ВПП-10/28 оборудована сертифицированным ССО (ОМИ), что позволяет выполнять полеты в ночное время суток. Имеются две вертолетные площадки с искусственным покрытием. Летное поле имеет форму неправильного четырехугольника, вытянутого с северо-запада на юго-восток и ограниченного с севера и востока дорогами, с юга - лесом, с запада - оврагом, покрытым лесом. Подъезд к посадочной площадке, а также подвоз грузов и ГСМ осуществляется по шоссе «Киров-Пасегово-Стрижи». Погрузочно-разгрузочные работы организуются ответственными лицами АК «Вяткаавиа». Принимает ВС массой до 10 т. АНППП зарегистрирован в Уральском МТУ ВТ Росавиации 02 фев 2011 запись А№1655.


Найти трансфер

С помощью этой формы Вы можете найти трансфер из аэропорта Кучаны в город, аэропорт или вокзал:

Погода в аэропортах:

Авиационная погода в Курске

Погода METAR: 
UUOK 212300Z AUTO 10002MPS 060V130 5000 -RA 11/11 Q0998 RMK QBB090 QFE731/0974
Время наблюдения
2022-05-21T23:00:00Z
Температура C
11.0
Точка росы
11.0
Направление ветра
100
Скорость ветра (узлы)
4
Метео видимость
3.11
Облачность
Нижняя граница облачности (футы)
Явления погоды
-RA
Условия полета
Аэропорт подробнее: 
-RA - слабый дождь;

Авиационная погода в Витебске

Регион: 
Погода METAR: 
UMII 212300Z 06004G07MPS 4600 -RA OVC009 08/07 Q1000 TEMPO 2000 RA BKN005
Время наблюдения
2022-05-21T23:00:00Z
Температура C
8.0
Точка росы
7.0
Направление ветра
60
Скорость ветра (узлы)
8
Метео видимость
2.86
Облачность
OVC
Нижняя граница облачности (футы)
900
Явления погоды
-RA
Условия полета
IFR
OVC – сплошная облачность;
-RA - слабый дождь;

Авиационная погода в Бухте Провидения

Погода METAR: 
UHMD 200430Z 20003MPS M0500 FG VV001 01/01 Q1029 RMK QBB050 MT OBSC QFE771/1028
Время наблюдения
2022-05-20T04:30:00Z
Температура C
1.0
Точка росы
1.0
Направление ветра
200
Скорость ветра (узлы)
6
Метео видимость
0.31
Облачность
OVX
Нижняя граница облачности (футы)
0
Явления погоды
FG
Условия полета
LIFR
Аэропорт подробнее: 
FG – туман (небо не видно, температура воздуха выше нуля или ноль);

Авиационная погода в Чимкенте

Регион: 
Погода METAR: 
UAII 212300Z 21006MPS 9999 -SHRA BKN046CB 15/13 Q1012 NOSIG RMK QFE722/0963
Время наблюдения
2022-05-21T23:00:00Z
Температура C
15.0
Точка росы
13.0
Направление ветра
210
Скорость ветра (узлы)
12
Метео видимость
6.21
Облачность
BKN
Нижняя граница облачности (футы)
4600
Явления погоды
-SHRA
Условия полета
VFR
Аэропорт подробнее: 
BKN – значительная (рассеянная, разорванная) облачность;
-SHRA - слабый ливневой дождь;